sensor_id;sensor_type;location;lat;lon;timestamp;P1;durP1;ratioP1;P2;durP2;ratioP2
26319;SDS011;14024;52.226;5.200;2022-12-22T00:02:12;73.28;;;31.80;;
26319;SDS011;14024;52.226;5.200;2022-12-22T00:07:42;68.18;;;29.48;;
26319;SDS011;14024;52.226;5.200;2022-12-22T00:10:27;63.67;;;29.95;;
26319;SDS011;14024;52.226;5.200;2022-12-22T00:13:11;67.50;;;30.67;;
26319;SDS011;14024;52.226;5.200;2022-12-22T00:15:56;72.15;;;31.75;;
26319;SDS011;14024;52.226;5.200;2022-12-22T00:18:41;69.75;;;31.00;;
26319;SDS011;14024;52.226;5.200;2022-12-22T00:21:26;69.07;;;30.33;;
26319;SDS011;14024;52.226;5.200;2022-12-22T00:24:13;69.47;;;30.40;;
26319;SDS011;14024;52.226;5.200;2022-12-22T00:26:57;66.22;;;30.92;;
26319;SDS011;14024;52.226;5.200;2022-12-22T00:29:42;65.38;;;28.40;;
26319;SDS011;14024;52.226;5.200;2022-12-22T00:32:30;68.70;;;30.88;;
26319;SDS011;14024;52.226;5.200;2022-12-22T00:35:15;62.42;;;30.83;;
26319;SDS011;14024;52.226;5.200;2022-12-22T00:38:00;65.82;;;30.38;;
26319;SDS011;14024;52.226;5.200;2022-12-22T00:40:44;62.20;;;30.10;;
26319;SDS011;14024;52.226;5.200;2022-12-22T00:43:29;63.55;;;29.85;;
26319;SDS011;14024;52.226;5.200;2022-12-22T00:46:14;64.25;;;30.42;;
26319;SDS011;14024;52.226;5.200;2022-12-22T00:48:59;59.67;;;28.55;;
26319;SDS011;14024;52.226;5.200;2022-12-22T00:51:44;63.10;;;28.52;;
26319;SDS011;14024;52.226;5.200;2022-12-22T00:54:29;60.90;;;28.38;;
26319;SDS011;14024;52.226;5.200;2022-12-22T00:57:15;63.58;;;29.65;;
26319;SDS011;14024;52.226;5.200;2022-12-22T01:00:00;64.60;;;28.85;;
26319;SDS011;14024;52.226;5.200;2022-12-22T01:02:45;62.65;;;29.58;;
26319;SDS011;14024;52.226;5.200;2022-12-22T01:05:30;55.75;;;26.77;;
26319;SDS011;14024;52.226;5.200;2022-12-22T01:08:15;67.30;;;29.52;;
26319;SDS011;14024;52.226;5.200;2022-12-22T01:10:59;63.20;;;28.83;;
26319;SDS011;14024;52.226;5.200;2022-12-22T01:13:44;64.97;;;28.98;;
26319;SDS011;14024;52.226;5.200;2022-12-22T01:16:28;67.20;;;29.70;;
26319;SDS011;14024;52.226;5.200;2022-12-22T01:19:13;68.03;;;29.42;;
26319;SDS011;14024;52.226;5.200;2022-12-22T01:21:57;67.53;;;28.40;;
26319;SDS011;14024;52.226;5.200;2022-12-22T01:24:42;62.53;;;29.85;;
26319;SDS011;14024;52.226;5.200;2022-12-22T01:27:27;59.30;;;29.02;;
26319;SDS011;14024;52.226;5.200;2022-12-22T01:30:11;62.05;;;27.67;;
26319;SDS011;14024;52.226;5.200;2022-12-22T01:32:56;60.05;;;28.27;;
26319;SDS011;14024;52.226;5.200;2022-12-22T01:35:40;61.47;;;28.75;;
26319;SDS011;14024;52.226;5.200;2022-12-22T01:38:25;63.05;;;30.42;;
26319;SDS011;14024;52.226;5.200;2022-12-22T01:41:11;59.13;;;28.70;;
26319;SDS011;14024;52.226;5.200;2022-12-22T01:43:57;65.43;;;28.65;;
26319;SDS011;14024;52.226;5.200;2022-12-22T01:46:43;58.20;;;27.55;;
26319;SDS011;14024;52.226;5.200;2022-12-22T01:49:35;61.92;;;28.52;;
26319;SDS011;14024;52.226;5.200;2022-12-22T01:52:22;63.92;;;28.63;;
26319;SDS011;14024;52.226;5.200;2022-12-22T01:55:09;64.22;;;29.77;;
26319;SDS011;14024;52.226;5.200;2022-12-22T01:57:54;58.80;;;28.27;;
26319;SDS011;14024;52.226;5.200;2022-12-22T02:00:39;65.45;;;29.25;;
26319;SDS011;14024;52.226;5.200;2022-12-22T02:03:24;62.38;;;28.55;;
26319;SDS011;14024;52.226;5.200;2022-12-22T02:09:26;65.03;;;29.55;;
26319;SDS011;14024;52.226;5.200;2022-12-22T02:15:02;54.53;;;26.35;;
26319;SDS011;14024;52.226;5.200;2022-12-22T02:20:35;63.50;;;28.73;;
26319;SDS011;14024;52.226;5.200;2022-12-22T02:26:25;60.33;;;26.58;;
26319;SDS011;14024;52.226;5.200;2022-12-22T02:29:12;60.47;;;27.45;;
26319;SDS011;14024;52.226;5.200;2022-12-22T02:31:57;63.88;;;28.88;;
26319;SDS011;14024;52.226;5.200;2022-12-22T02:34:41;59.42;;;27.48;;
26319;SDS011;14024;52.226;5.200;2022-12-22T02:46:23;60.70;;;26.38;;
26319;SDS011;14024;52.226;5.200;2022-12-22T02:51:56;71.22;;;28.83;;
26319;SDS011;14024;52.226;5.200;2022-12-22T02:54:42;69.63;;;28.95;;
26319;SDS011;14024;52.226;5.200;2022-12-22T02:57:27;70.07;;;29.63;;
26319;SDS011;14024;52.226;5.200;2022-12-22T03:00:12;65.95;;;27.17;;
26319;SDS011;14024;52.226;5.200;2022-12-22T03:02:57;70.28;;;28.02;;
26319;SDS011;14024;52.226;5.200;2022-12-22T03:05:42;74.07;;;29.98;;
26319;SDS011;14024;52.226;5.200;2022-12-22T03:08:26;71.53;;;28.17;;
26319;SDS011;14024;52.226;5.200;2022-12-22T03:11:11;72.97;;;29.25;;
26319;SDS011;14024;52.226;5.200;2022-12-22T03:13:55;82.60;;;29.88;;
26319;SDS011;14024;52.226;5.200;2022-12-22T03:16:40;76.45;;;29.20;;
26319;SDS011;14024;52.226;5.200;2022-12-22T03:19:24;76.72;;;30.33;;
26319;SDS011;14024;52.226;5.200;2022-12-22T03:22:09;72.35;;;29.52;;
26319;SDS011;14024;52.226;5.200;2022-12-22T03:24:53;82.28;;;30.95;;
26319;SDS011;14024;52.226;5.200;2022-12-22T03:27:38;80.22;;;29.95;;
26319;SDS011;14024;52.226;5.200;2022-12-22T03:30:04;84.80;;;29.60;;
26319;SDS011;14024;52.226;5.200;2022-12-22T03:32:30;83.75;;;31.60;;
26319;SDS011;14024;52.226;5.200;2022-12-22T03:34:56;81.10;;;30.60;;
26319;SDS011;14024;52.226;5.200;2022-12-22T03:37:22;88.80;;;32.08;;
26319;SDS011;14024;52.226;5.200;2022-12-22T03:39:48;77.95;;;32.58;;
26319;SDS011;14024;52.226;5.200;2022-12-22T03:42:14;90.72;;;32.17;;
26319;SDS011;14024;52.226;5.200;2022-12-22T03:44:59;81.63;;;32.28;;
26319;SDS011;14024;52.226;5.200;2022-12-22T03:47:43;86.43;;;31.17;;
26319;SDS011;14024;52.226;5.200;2022-12-22T03:50:09;79.25;;;32.38;;
26319;SDS011;14024;52.226;5.200;2022-12-22T03:52:35;89.97;;;33.15;;
26319;SDS011;14024;52.226;5.200;2022-12-22T03:55:01;85.85;;;32.90;;
26319;SDS011;14024;52.226;5.200;2022-12-22T03:57:27;88.97;;;33.33;;
26319;SDS011;14024;52.226;5.200;2022-12-22T03:59:53;94.38;;;33.67;;
26319;SDS011;14024;52.226;5.200;2022-12-22T04:02:19;87.40;;;32.92;;
26319;SDS011;14024;52.226;5.200;2022-12-22T04:04:45;88.68;;;32.80;;
26319;SDS011;14024;52.226;5.200;2022-12-22T04:07:11;82.68;;;32.50;;
26319;SDS011;14024;52.226;5.200;2022-12-22T04:09:37;100.78;;;34.58;;
26319;SDS011;14024;52.226;5.200;2022-12-22T04:12:23;86.47;;;31.35;;
26319;SDS011;14024;52.226;5.200;2022-12-22T04:15:07;87.30;;;33.22;;
26319;SDS011;14024;52.226;5.200;2022-12-22T04:17:33;92.45;;;31.77;;
26319;SDS011;14024;52.226;5.200;2022-12-22T04:19:59;93.45;;;35.95;;
26319;SDS011;14024;52.226;5.200;2022-12-22T04:22:25;97.75;;;33.20;;
26319;SDS011;14024;52.226;5.200;2022-12-22T04:24:51;101.15;;;35.35;;
26319;SDS011;14024;52.226;5.200;2022-12-22T04:27:17;93.78;;;32.85;;
26319;SDS011;14024;52.226;5.200;2022-12-22T04:29:43;90.47;;;32.90;;
26319;SDS011;14024;52.226;5.200;2022-12-22T04:32:09;94.65;;;34.38;;
26319;SDS011;14024;52.226;5.200;2022-12-22T04:34:35;91.97;;;33.53;;
26319;SDS011;14024;52.226;5.200;2022-12-22T04:37:01;90.68;;;32.85;;
26319;SDS011;14024;52.226;5.200;2022-12-22T04:39:27;100.53;;;33.95;;
26319;SDS011;14024;52.226;5.200;2022-12-22T04:41:53;87.50;;;32.22;;
26319;SDS011;14024;52.226;5.200;2022-12-22T04:44:19;94.70;;;32.42;;
26319;SDS011;14024;52.226;5.200;2022-12-22T04:46:45;95.35;;;33.40;;
26319;SDS011;14024;52.226;5.200;2022-12-22T04:49:11;94.30;;;31.63;;
26319;SDS011;14024;52.226;5.200;2022-12-22T04:51:37;82.10;;;31.00;;
26319;SDS011;14024;52.226;5.200;2022-12-22T04:54:03;82.70;;;30.52;;
26319;SDS011;14024;52.226;5.200;2022-12-22T04:56:29;81.40;;;31.20;;
26319;SDS011;14024;52.226;5.200;2022-12-22T04:58:55;77.15;;;27.92;;
26319;SDS011;14024;52.226;5.200;2022-12-22T05:01:21;80.72;;;30.95;;
26319;SDS011;14024;52.226;5.200;2022-12-22T05:03:47;70.70;;;27.42;;
26319;SDS011;14024;52.226;5.200;2022-12-22T05:06:13;78.05;;;30.27;;
26319;SDS011;14024;52.226;5.200;2022-12-22T05:08:39;72.07;;;28.45;;
26319;SDS011;14024;52.226;5.200;2022-12-22T05:11:05;67.22;;;26.17;;
26319;SDS011;14024;52.226;5.200;2022-12-22T05:13:31;67.57;;;26.73;;
26319;SDS011;14024;52.226;5.200;2022-12-22T05:16:04;66.22;;;24.20;;
26319;SDS011;14024;52.226;5.200;2022-12-22T05:18:30;68.30;;;26.50;;
26319;SDS011;14024;52.226;5.200;2022-12-22T05:20:56;64.20;;;25.40;;
26319;SDS011;14024;52.226;5.200;2022-12-22T05:23:22;68.53;;;25.63;;
26319;SDS011;14024;52.226;5.200;2022-12-22T05:25:48;68.40;;;26.48;;
26319;SDS011;14024;52.226;5.200;2022-12-22T05:28:14;74.97;;;27.67;;
26319;SDS011;14024;52.226;5.200;2022-12-22T05:30:40;78.68;;;27.15;;
26319;SDS011;14024;52.226;5.200;2022-12-22T05:33:06;85.88;;;31.13;;
26319;SDS011;14024;52.226;5.200;2022-12-22T05:35:32;87.30;;;29.33;;
26319;SDS011;14024;52.226;5.200;2022-12-22T05:37:58;98.78;;;33.38;;
26319;SDS011;14024;52.226;5.200;2022-12-22T05:40:24;95.20;;;31.25;;
26319;SDS011;14024;52.226;5.200;2022-12-22T05:42:50;104.15;;;32.85;;
26319;SDS011;14024;52.226;5.200;2022-12-22T05:45:17;107.07;;;34.33;;
26319;SDS011;14024;52.226;5.200;2022-12-22T05:47:44;112.95;;;35.85;;
26319;SDS011;14024;52.226;5.200;2022-12-22T05:50:10;104.82;;;34.90;;
26319;SDS011;14024;52.226;5.200;2022-12-22T05:52:37;109.28;;;34.92;;
26319;SDS011;14024;52.226;5.200;2022-12-22T05:55:03;105.93;;;32.72;;
26319;SDS011;14024;52.226;5.200;2022-12-22T05:57:29;113.25;;;34.63;;
26319;SDS011;14024;52.226;5.200;2022-12-22T05:59:55;89.78;;;30.88;;
26319;SDS011;14024;52.226;5.200;2022-12-22T06:02:21;94.93;;;31.50;;
26319;SDS011;14024;52.226;5.200;2022-12-22T06:04:47;94.75;;;32.83;;
26319;SDS011;14024;52.226;5.200;2022-12-22T06:07:13;89.22;;;30.15;;
26319;SDS011;14024;52.226;5.200;2022-12-22T06:09:39;96.70;;;31.67;;
26319;SDS011;14024;52.226;5.200;2022-12-22T06:12:05;88.18;;;29.55;;
26319;SDS011;14024;52.226;5.200;2022-12-22T06:14:31;88.20;;;29.17;;
26319;SDS011;14024;52.226;5.200;2022-12-22T06:16:57;104.53;;;33.45;;
26319;SDS011;14024;52.226;5.200;2022-12-22T06:19:23;97.30;;;32.60;;
26319;SDS011;14024;52.226;5.200;2022-12-22T06:21:49;101.93;;;31.73;;
26319;SDS011;14024;52.226;5.200;2022-12-22T06:24:15;102.75;;;29.90;;
26319;SDS011;14024;52.226;5.200;2022-12-22T06:26:41;107.20;;;31.75;;
26319;SDS011;14024;52.226;5.200;2022-12-22T06:29:07;97.65;;;30.88;;
26319;SDS011;14024;52.226;5.200;2022-12-22T06:31:33;99.68;;;29.70;;
26319;SDS011;14024;52.226;5.200;2022-12-22T06:33:59;92.38;;;27.92;;
26319;SDS011;14024;52.226;5.200;2022-12-22T06:36:25;95.57;;;26.77;;
26319;SDS011;14024;52.226;5.200;2022-12-22T06:38:51;102.57;;;27.98;;
26319;SDS011;14024;52.226;5.200;2022-12-22T06:41:17;101.75;;;29.85;;
26319;SDS011;14024;52.226;5.200;2022-12-22T06:44:03;120.35;;;27.52;;
26319;SDS011;14024;52.226;5.200;2022-12-22T06:46:29;97.32;;;26.67;;
26319;SDS011;14024;52.226;5.200;2022-12-22T06:48:55;144.05;;;25.80;;
26319;SDS011;14024;52.226;5.200;2022-12-22T06:51:21;94.82;;;22.45;;
26319;SDS011;14024;52.226;5.200;2022-12-22T06:53:46;101.20;;;21.95;;
26319;SDS011;14024;52.226;5.200;2022-12-22T06:56:12;115.25;;;21.98;;
26319;SDS011;14024;52.226;5.200;2022-12-22T06:58:38;111.70;;;24.65;;
26319;SDS011;14024;52.226;5.200;2022-12-22T07:01:05;189.27;;;27.58;;
26319;SDS011;14024;52.226;5.200;2022-12-22T07:03:31;114.38;;;21.58;;
26319;SDS011;14024;52.226;5.200;2022-12-22T07:05:57;157.52;;;23.75;;
26319;SDS011;14024;52.226;5.200;2022-12-22T07:08:23;128.02;;;22.20;;
26319;SDS011;14024;52.226;5.200;2022-12-22T07:10:49;89.45;;;21.27;;
26319;SDS011;14024;52.226;5.200;2022-12-22T07:13:25;137.52;;;22.95;;
26319;SDS011;14024;52.226;5.200;2022-12-22T07:15:52;95.63;;;22.02;;
26319;SDS011;14024;52.226;5.200;2022-12-22T07:18:18;144.65;;;25.02;;
26319;SDS011;14024;52.226;5.200;2022-12-22T07:20:44;110.20;;;23.98;;
26319;SDS011;14024;52.226;5.200;2022-12-22T07:23:10;103.18;;;23.17;;
26319;SDS011;14024;52.226;5.200;2022-12-22T07:25:36;110.13;;;25.92;;
26319;SDS011;14024;52.226;5.200;2022-12-22T07:28:02;96.93;;;22.02;;
26319;SDS011;14024;52.226;5.200;2022-12-22T07:30:28;93.50;;;24.02;;
26319;SDS011;14024;52.226;5.200;2022-12-22T07:32:54;89.70;;;23.70;;
26319;SDS011;14024;52.226;5.200;2022-12-22T07:35:20;100.70;;;25.92;;
26319;SDS011;14024;52.226;5.200;2022-12-22T07:37:47;96.40;;;24.88;;
26319;SDS011;14024;52.226;5.200;2022-12-22T07:40:13;108.97;;;23.23;;
26319;SDS011;14024;52.226;5.200;2022-12-22T07:42:39;89.10;;;24.38;;
26319;SDS011;14024;52.226;5.200;2022-12-22T07:45:11;86.32;;;23.63;;
26319;SDS011;14024;52.226;5.200;2022-12-22T07:47:38;93.55;;;23.25;;
26319;SDS011;14024;52.226;5.200;2022-12-22T07:50:04;85.72;;;22.55;;
26319;SDS011;14024;52.226;5.200;2022-12-22T07:52:49;89.78;;;24.42;;
26319;SDS011;14024;52.226;5.200;2022-12-22T07:55:16;79.57;;;22.33;;
26319;SDS011;14024;52.226;5.200;2022-12-22T07:57:42;72.75;;;21.33;;
26319;SDS011;14024;52.226;5.200;2022-12-22T08:00:08;89.90;;;24.33;;
26319;SDS011;14024;52.226;5.200;2022-12-22T08:02:34;78.38;;;23.60;;
26319;SDS011;14024;52.226;5.200;2022-12-22T08:05:00;83.82;;;22.05;;
26319;SDS011;14024;52.226;5.200;2022-12-22T08:07:26;74.22;;;19.42;;
26319;SDS011;14024;52.226;5.200;2022-12-22T08:09:52;83.07;;;21.63;;
26319;SDS011;14024;52.226;5.200;2022-12-22T08:12:18;78.03;;;20.65;;
26319;SDS011;14024;52.226;5.200;2022-12-22T08:14:44;73.50;;;20.50;;
26319;SDS011;14024;52.226;5.200;2022-12-22T08:17:13;64.85;;;20.90;;
26319;SDS011;14024;52.226;5.200;2022-12-22T08:19:39;63.70;;;18.02;;
26319;SDS011;14024;52.226;5.200;2022-12-22T08:22:05;58.70;;;18.40;;
26319;SDS011;14024;52.226;5.200;2022-12-22T08:24:32;68.38;;;18.45;;
26319;SDS011;14024;52.226;5.200;2022-12-22T08:26:58;68.95;;;19.23;;
26319;SDS011;14024;52.226;5.200;2022-12-22T08:29:28;62.83;;;17.75;;
26319;SDS011;14024;52.226;5.200;2022-12-22T08:31:56;62.90;;;18.38;;
26319;SDS011;14024;52.226;5.200;2022-12-22T08:34:22;65.20;;;17.60;;
26319;SDS011;14024;52.226;5.200;2022-12-22T08:36:49;58.75;;;17.52;;
26319;SDS011;14024;52.226;5.200;2022-12-22T08:39:16;70.07;;;14.98;;
26319;SDS011;14024;52.226;5.200;2022-12-22T08:41:44;55.22;;;14.13;;
26319;SDS011;14024;52.226;5.200;2022-12-22T08:44:23;34.53;;;11.23;;
26319;SDS011;14024;52.226;5.200;2022-12-22T08:46:49;38.00;;;11.05;;
26319;SDS011;14024;52.226;5.200;2022-12-22T08:49:15;44.70;;;11.60;;
26319;SDS011;14024;52.226;5.200;2022-12-22T08:51:42;55.03;;;11.95;;
26319;SDS011;14024;52.226;5.200;2022-12-22T08:54:08;43.00;;;12.07;;
26319;SDS011;14024;52.226;5.200;2022-12-22T08:56:34;51.58;;;14.52;;
26319;SDS011;14024;52.226;5.200;2022-12-22T08:59:00;52.03;;;11.32;;
26319;SDS011;14024;52.226;5.200;2022-12-22T09:01:29;48.72;;;12.38;;
26319;SDS011;14024;52.226;5.200;2022-12-22T09:03:56;53.97;;;12.45;;
26319;SDS011;14024;52.226;5.200;2022-12-22T09:06:22;49.70;;;11.73;;
26319;SDS011;14024;52.226;5.200;2022-12-22T09:08:52;54.65;;;11.82;;
26319;SDS011;14024;52.226;5.200;2022-12-22T09:11:18;54.50;;;12.38;;
26319;SDS011;14024;52.226;5.200;2022-12-22T09:13:44;37.17;;;11.70;;
26319;SDS011;14024;52.226;5.200;2022-12-22T09:16:10;54.45;;;12.10;;
26319;SDS011;14024;52.226;5.200;2022-12-22T09:18:36;50.38;;;12.18;;
26319;SDS011;14024;52.226;5.200;2022-12-22T09:21:02;39.15;;;11.95;;
26319;SDS011;14024;52.226;5.200;2022-12-22T09:23:29;36.80;;;11.55;;
26319;SDS011;14024;52.226;5.200;2022-12-22T09:25:56;27.90;;;12.02;;
26319;SDS011;14024;52.226;5.200;2022-12-22T09:28:22;31.80;;;12.57;;
26319;SDS011;14024;52.226;5.200;2022-12-22T09:30:48;33.80;;;12.25;;
26319;SDS011;14024;52.226;5.200;2022-12-22T09:33:15;27.27;;;11.65;;
26319;SDS011;14024;52.226;5.200;2022-12-22T09:35:41;29.02;;;10.65;;
26319;SDS011;14024;52.226;5.200;2022-12-22T09:38:06;27.67;;;10.05;;
26319;SDS011;14024;52.226;5.200;2022-12-22T09:40:32;24.45;;;9.70;;
26319;SDS011;14024;52.226;5.200;2022-12-22T09:42:59;31.63;;;9.93;;
26319;SDS011;14024;52.226;5.200;2022-12-22T09:45:25;23.15;;;9.32;;
26319;SDS011;14024;52.226;5.200;2022-12-22T09:47:52;21.45;;;9.43;;
26319;SDS011;14024;52.226;5.200;2022-12-22T09:50:23;37.75;;;10.23;;
26319;SDS011;14024;52.226;5.200;2022-12-22T09:52:51;35.92;;;9.80;;
26319;SDS011;14024;52.226;5.200;2022-12-22T09:55:36;34.08;;;10.30;;
26319;SDS011;14024;52.226;5.200;2022-12-22T09:58:02;29.42;;;9.95;;
26319;SDS011;14024;52.226;5.200;2022-12-22T10:00:29;26.20;;;9.85;;
26319;SDS011;14024;52.226;5.200;2022-12-22T10:02:58;25.92;;;9.88;;
26319;SDS011;14024;52.226;5.200;2022-12-22T10:05:31;25.58;;;11.15;;
26319;SDS011;14024;52.226;5.200;2022-12-22T10:08:07;26.48;;;10.73;;
26319;SDS011;14024;52.226;5.200;2022-12-22T10:10:34;23.83;;;9.75;;
26319;SDS011;14024;52.226;5.200;2022-12-22T10:13:01;31.25;;;11.50;;
26319;SDS011;14024;52.226;5.200;2022-12-22T10:15:38;27.75;;;11.73;;
26319;SDS011;14024;52.226;5.200;2022-12-22T10:18:11;30.85;;;12.32;;
26319;SDS011;14024;52.226;5.200;2022-12-22T10:20:38;31.02;;;12.32;;
26319;SDS011;14024;52.226;5.200;2022-12-22T10:23:15;28.42;;;12.35;;
26319;SDS011;14024;52.226;5.200;2022-12-22T10:25:45;26.58;;;11.77;;
26319;SDS011;14024;52.226;5.200;2022-12-22T10:28:18;31.95;;;11.52;;
26319;SDS011;14024;52.226;5.200;2022-12-22T10:30:45;30.33;;;10.18;;
26319;SDS011;14024;52.226;5.200;2022-12-22T10:33:12;26.25;;;10.40;;
26319;SDS011;14024;52.226;5.200;2022-12-22T10:35:41;28.17;;;11.40;;
26319;SDS011;14024;52.226;5.200;2022-12-22T10:38:12;23.02;;;10.73;;
26319;SDS011;14024;52.226;5.200;2022-12-22T10:40:45;24.02;;;10.07;;
26319;SDS011;14024;52.226;5.200;2022-12-22T10:43:19;26.38;;;10.70;;
26319;SDS011;14024;52.226;5.200;2022-12-22T10:45:46;27.88;;;10.15;;
26319;SDS011;14024;52.226;5.200;2022-12-22T10:48:12;32.75;;;11.02;;
26319;SDS011;14024;52.226;5.200;2022-12-22T10:50:48;26.05;;;10.25;;
26319;SDS011;14024;52.226;5.200;2022-12-22T10:53:14;24.70;;;9.90;;
26319;SDS011;14024;52.226;5.200;2022-12-22T10:55:40;28.05;;;10.75;;
26319;SDS011;14024;52.226;5.200;2022-12-22T11:00:35;23.30;;;8.80;;
26319;SDS011;14024;52.226;5.200;2022-12-22T11:03:01;25.65;;;8.85;;
26319;SDS011;14024;52.226;5.200;2022-12-22T11:05:28;22.02;;;8.25;;
26319;SDS011;14024;52.226;5.200;2022-12-22T11:07:54;22.98;;;8.50;;
26319;SDS011;14024;52.226;5.200;2022-12-22T11:10:35;20.48;;;7.97;;
26319;SDS011;14024;52.226;5.200;2022-12-22T11:18:23;19.17;;;6.75;;
26319;SDS011;14024;52.226;5.200;2022-12-22T11:26:08;19.88;;;6.20;;
26319;SDS011;14024;52.226;5.200;2022-12-22T11:31:30;21.30;;;6.78;;
26319;SDS011;14024;52.226;5.200;2022-12-22T11:36:56;18.13;;;7.55;;
26319;SDS011;14024;52.226;5.200;2022-12-22T11:39:37;18.23;;;6.63;;
26319;SDS011;14024;52.226;5.200;2022-12-22T11:42:28;17.88;;;6.30;;
26319;SDS011;14024;52.226;5.200;2022-12-22T11:50:28;20.52;;;6.97;;
26319;SDS011;14024;52.226;5.200;2022-12-22T11:55:27;10.68;;;5.78;;
26319;SDS011;14024;52.226;5.200;2022-12-22T11:58:12;14.70;;;6.78;;
26319;SDS011;14024;52.226;5.200;2022-12-22T12:19:19;19.70;;;7.35;;
26319;SDS011;14024;52.226;5.200;2022-12-22T12:26:45;19.52;;;9.07;;
26319;SDS011;14024;52.226;5.200;2022-12-22T12:29:15;21.48;;;10.07;;
26319;SDS011;14024;52.226;5.200;2022-12-22T12:31:56;25.73;;;9.20;;
26319;SDS011;14024;52.226;5.200;2022-12-22T12:34:23;17.48;;;9.60;;
26319;SDS011;14024;52.226;5.200;2022-12-22T12:36:56;20.17;;;9.80;;
26319;SDS011;14024;52.226;5.200;2022-12-22T12:39:35;21.33;;;9.50;;
26319;SDS011;14024;52.226;5.200;2022-12-22T12:44:30;18.85;;;9.82;;
26319;SDS011;14024;52.226;5.200;2022-12-22T12:47:17;23.15;;;10.07;;
26319;SDS011;14024;52.226;5.200;2022-12-22T12:57:52;29.08;;;11.98;;
26319;SDS011;14024;52.226;5.200;2022-12-22T13:03:42;31.75;;;13.57;;
26319;SDS011;14024;52.226;5.200;2022-12-22T13:20:53;39.83;;;15.05;;
26319;SDS011;14024;52.226;5.200;2022-12-22T13:23:20;40.20;;;15.07;;
26319;SDS011;14024;52.226;5.200;2022-12-22T13:25:47;39.58;;;15.30;;
26319;SDS011;14024;52.226;5.200;2022-12-22T13:28:15;40.72;;;14.75;;
26319;SDS011;14024;52.226;5.200;2022-12-22T13:30:46;41.35;;;15.27;;
26319;SDS011;14024;52.226;5.200;2022-12-22T13:33:13;43.45;;;16.30;;
26319;SDS011;14024;52.226;5.200;2022-12-22T13:35:40;44.92;;;17.95;;
26319;SDS011;14024;52.226;5.200;2022-12-22T13:38:27;49.17;;;17.52;;
26319;SDS011;14024;52.226;5.200;2022-12-22T13:40:54;51.42;;;17.17;;
26319;SDS011;14024;52.226;5.200;2022-12-22T13:43:21;45.88;;;17.98;;
26319;SDS011;14024;52.226;5.200;2022-12-22T13:45:48;52.15;;;18.52;;
26319;SDS011;14024;52.226;5.200;2022-12-22T13:48:16;52.35;;;18.73;;
26319;SDS011;14024;52.226;5.200;2022-12-22T13:50:47;50.58;;;17.65;;
26319;SDS011;14024;52.226;5.200;2022-12-22T13:55:44;49.88;;;17.98;;
26319;SDS011;14024;52.226;5.200;2022-12-22T13:58:30;49.83;;;18.67;;
26319;SDS011;14024;52.226;5.200;2022-12-22T14:03:27;54.40;;;20.20;;
26319;SDS011;14024;52.226;5.200;2022-12-22T14:05:52;55.42;;;19.30;;
26319;SDS011;14024;52.226;5.200;2022-12-22T14:08:22;53.88;;;17.85;;
26319;SDS011;14024;52.226;5.200;2022-12-22T14:10:51;46.72;;;19.08;;
26319;SDS011;14024;52.226;5.200;2022-12-22T14:13:19;54.13;;;19.27;;
26319;SDS011;14024;52.226;5.200;2022-12-22T14:15:45;51.63;;;18.63;;
26319;SDS011;14024;52.226;5.200;2022-12-22T14:18:15;50.40;;;19.65;;
26319;SDS011;14024;52.226;5.200;2022-12-22T14:20:42;54.35;;;19.83;;
26319;SDS011;14024;52.226;5.200;2022-12-22T14:23:11;53.50;;;19.45;;
26319;SDS011;14024;52.226;5.200;2022-12-22T14:25:41;58.85;;;21.15;;
26319;SDS011;14024;52.226;5.200;2022-12-22T14:28:17;63.78;;;22.45;;
26319;SDS011;14024;52.226;5.200;2022-12-22T14:30:45;60.20;;;21.65;;
26319;SDS011;14024;52.226;5.200;2022-12-22T14:33:14;51.63;;;21.60;;
26319;SDS011;14024;52.226;5.200;2022-12-22T14:35:40;57.10;;;22.58;;
26319;SDS011;14024;52.226;5.200;2022-12-22T14:40:41;49.00;;;20.40;;
26319;SDS011;14024;52.226;5.200;2022-12-22T14:45:46;52.05;;;20.10;;
26319;SDS011;14024;52.226;5.200;2022-12-22T14:48:17;54.90;;;21.10;;
26319;SDS011;14024;52.226;5.200;2022-12-22T14:50:47;53.75;;;20.33;;
26319;SDS011;14024;52.226;5.200;2022-12-22T14:53:13;56.80;;;21.27;;
26319;SDS011;14024;52.226;5.200;2022-12-22T14:55:41;60.75;;;21.50;;
26319;SDS011;14024;52.226;5.200;2022-12-22T15:00:35;51.97;;;20.83;;
26319;SDS011;14024;52.226;5.200;2022-12-22T15:03:05;50.55;;;20.85;;
26319;SDS011;14024;52.226;5.200;2022-12-22T15:05:32;51.40;;;20.27;;
26319;SDS011;14024;52.226;5.200;2022-12-22T15:07:59;48.97;;;19.60;;
26319;SDS011;14024;52.226;5.200;2022-12-22T15:10:25;52.72;;;20.85;;
26319;SDS011;14024;52.226;5.200;2022-12-22T15:12:56;58.85;;;22.67;;
26319;SDS011;14024;52.226;5.200;2022-12-22T15:15:23;60.47;;;22.17;;
26319;SDS011;14024;52.226;5.200;2022-12-22T15:17:49;61.53;;;24.17;;
26319;SDS011;14024;52.226;5.200;2022-12-22T15:20:20;54.42;;;21.58;;
26319;SDS011;14024;52.226;5.200;2022-12-22T15:22:46;58.83;;;21.20;;
26319;SDS011;14024;52.226;5.200;2022-12-22T15:25:13;56.42;;;22.85;;
26319;SDS011;14024;52.226;5.200;2022-12-22T15:27:39;53.25;;;23.33;;
26319;SDS011;14024;52.226;5.200;2022-12-22T15:30:05;62.03;;;24.45;;
26319;SDS011;14024;52.226;5.200;2022-12-22T15:32:31;60.97;;;22.27;;
26319;SDS011;14024;52.226;5.200;2022-12-22T15:34:57;59.90;;;24.17;;
26319;SDS011;14024;52.226;5.200;2022-12-22T15:37:26;55.63;;;23.17;;
26319;SDS011;14024;52.226;5.200;2022-12-22T15:39:52;64.75;;;25.83;;
26319;SDS011;14024;52.226;5.200;2022-12-22T15:42:18;60.17;;;25.80;;
26319;SDS011;14024;52.226;5.200;2022-12-22T15:44:44;56.28;;;24.00;;
26319;SDS011;14024;52.226;5.200;2022-12-22T15:47:10;65.10;;;26.50;;
26319;SDS011;14024;52.226;5.200;2022-12-22T15:49:36;64.18;;;25.08;;
26319;SDS011;14024;52.226;5.200;2022-12-22T15:52:03;61.83;;;25.35;;
26319;SDS011;14024;52.226;5.200;2022-12-22T15:54:29;59.63;;;24.55;;
26319;SDS011;14024;52.226;5.200;2022-12-22T15:56:57;58.15;;;23.98;;
26319;SDS011;14024;52.226;5.200;2022-12-22T15:59:25;63.42;;;25.80;;
26319;SDS011;14024;52.226;5.200;2022-12-22T16:01:52;65.07;;;26.25;;
26319;SDS011;14024;52.226;5.200;2022-12-22T16:04:18;59.92;;;26.75;;
26319;SDS011;14024;52.226;5.200;2022-12-22T16:06:44;64.25;;;25.45;;
26319;SDS011;14024;52.226;5.200;2022-12-22T16:09:19;73.35;;;27.33;;
26319;SDS011;14024;52.226;5.200;2022-12-22T16:11:46;66.22;;;28.02;;
26319;SDS011;14024;52.226;5.200;2022-12-22T16:14:12;66.82;;;28.48;;
26319;SDS011;14024;52.226;5.200;2022-12-22T16:16:39;78.90;;;31.90;;
26319;SDS011;14024;52.226;5.200;2022-12-22T16:19:07;69.55;;;28.85;;
26319;SDS011;14024;52.226;5.200;2022-12-22T16:21:37;72.80;;;27.80;;
26319;SDS011;14024;52.226;5.200;2022-12-22T16:24:03;69.85;;;28.77;;
26319;SDS011;14024;52.226;5.200;2022-12-22T16:26:30;73.75;;;29.40;;
26319;SDS011;14024;52.226;5.200;2022-12-22T16:28:56;76.15;;;33.00;;
26319;SDS011;14024;52.226;5.200;2022-12-22T16:31:23;74.20;;;29.42;;
26319;SDS011;14024;52.226;5.200;2022-12-22T16:33:49;71.95;;;29.50;;
26319;SDS011;14024;52.226;5.200;2022-12-22T16:36:15;70.25;;;30.30;;
26319;SDS011;14024;52.226;5.200;2022-12-22T16:38:41;71.22;;;30.17;;
26319;SDS011;14024;52.226;5.200;2022-12-22T16:41:23;76.32;;;29.48;;
26319;SDS011;14024;52.226;5.200;2022-12-22T16:43:49;69.22;;;29.35;;